Time;durP1;ratioP1;P1;durP2;ratioP2;P2;SDS_P1;SDS_P2;PMS_P1;PMS_P2;Temp;Humidity;BMP_temperature;BMP_pressure;BME280_temperature;BME280_humidity;BME280_pressure;Samples;Min_cycle;Max_cycle;Signal;HPM_P1;HPM_P2
2022/06/29 00:04:20;;;;;;;5.07;4.10;;;;;;;28.38;nan;100273.53;20876964;27;96818;-76
2022/06/29 00:14:20;;;;;;;4.77;4.30;;;;;;;28.37;nan;100263.03;20846090;27;96888;-75
2022/06/29 00:24:21;;;;;;;4.30;3.90;;;;;;;28.36;nan;100280.84;20881544;27;97364;-76
2022/06/29 00:34:21;;;;;;;4.40;4.00;;;;;;;28.36;nan;100253.41;20886016;27;98290;-75
2022/06/29 00:44:22;;;;;;;4.23;3.83;;;;;;;28.34;nan;100258.06;20888481;27;96971;-76
2022/06/29 00:54:23;;;;;;;4.50;4.10;;;;;;;28.34;nan;100250.88;20880832;27;97659;-76
2022/06/29 01:04:24;;;;;;;4.32;3.65;;;;;;;28.34;nan;100234.91;20877086;27;97199;-76
2022/06/29 01:14:25;;;;;;;4.20;3.80;;;;;;;28.35;nan;100241.09;20879253;27;96860;-76
2022/06/29 01:24:25;;;;;;;4.22;3.75;;;;;;;28.33;nan;100229.75;20873167;27;97051;-76
2022/06/29 01:34:28;;;;;;;3.80;3.50;;;;;;;28.34;nan;100234.09;20898174;27;96970;-76
2022/06/29 01:44:28;;;;;;;3.80;3.50;;;;;;;28.33;nan;100235.09;20873466;27;97607;-77
2022/06/29 01:54:29;;;;;;;3.78;3.38;;;;;;;28.30;nan;100233.59;20876789;27;97202;-76
2022/06/29 02:04:29;;;;;;;3.63;3.30;;;;;;;28.31;nan;100215.78;20882503;27;96939;-76
2022/06/29 02:14:30;;;;;;;3.20;3.00;;;;;;;28.31;nan;100221.09;20862041;27;96881;-77
2022/06/29 02:24:30;;;;;;;3.47;3.13;;;;;;;28.30;nan;100220.28;20866483;27;97284;-76
2022/06/29 02:34:43;;;;;;;3.90;3.60;;;;;;;28.30;nan;100222.94;20848218;27;96932;-77
2022/06/29 02:44:43;;;;;;;3.40;3.10;;;;;;;28.29;nan;100215.97;20883877;27;96903;-76
2022/06/29 02:54:43;;;;;;;3.40;3.07;;;;;;;28.30;nan;100216.81;20875107;27;96853;-77
2022/06/29 03:04:44;;;;;;;3.10;2.80;;;;;;;28.28;nan;100212.47;20862960;27;97684;-76
2022/06/29 03:14:45;;;;;;;3.10;2.70;;;;;;;28.26;nan;100216.31;20860197;27;96644;-76
2022/06/29 03:24:46;;;;;;;3.50;2.80;;;;;;;28.25;nan;100222.63;20878392;27;96723;-76
2022/06/29 03:34:47;;;;;;;3.08;2.83;;;;;;;28.23;nan;100220.13;20874269;27;97120;-76
2022/06/29 03:44:47;;;;;;;3.30;3.00;;;;;;;28.24;nan;100219.13;20862447;27;106169;-77
2022/06/29 03:54:50;;;;;;;2.90;2.70;;;;;;;28.24;nan;100235.09;20872708;27;96917;-77
2022/06/29 04:04:51;;;;;;;3.10;2.80;;;;;;;28.25;nan;100235.94;20892972;27;97157;-77
2022/06/29 04:14:51;;;;;;;3.00;2.63;;;;;;;28.24;nan;100226.28;20878840;27;96834;-77
2022/06/29 04:24:52;;;;;;;2.97;2.77;;;;;;;28.22;nan;100220.31;20869191;27;97150;-76
2022/06/29 04:34:52;;;;;;;2.85;2.65;;;;;;;28.23;nan;100230.78;20889579;27;96893;-76
2022/06/29 04:44:53;;;;;;;3.20;2.90;;;;;;;28.23;nan;100235.28;20881057;27;97179;-76
2022/06/29 04:54:54;;;;;;;3.03;2.60;;;;;;;28.20;nan;100228.47;20859515;27;97114;-76
2022/06/29 05:04:55;;;;;;;2.50;2.30;;;;;;;28.20;nan;100239.13;20871071;27;97496;-77
2022/06/29 05:14:55;;;;;;;2.53;2.33;;;;;;;28.20;nan;100238.28;20861732;27;96906;-76
2022/06/29 05:24:55;;;;;;;2.63;2.43;;;;;;;28.23;nan;100240.59;20868254;27;96892;-76
2022/06/29 05:34:56;;;;;;;2.50;2.30;;;;;;;28.21;nan;100243.44;20883281;27;96910;-76
2022/06/29 05:44:57;;;;;;;2.53;2.33;;;;;;;28.21;nan;100240.78;20870997;27;97292;-77
2022/06/29 05:54:58;;;;;;;2.10;2.00;;;;;;;28.21;nan;100226.63;20864096;27;97125;-76
2022/06/29 06:04:59;;;;;;;2.50;2.30;;;;;;;28.21;nan;100221.31;20866759;27;97001;-76
2022/06/29 06:15:01;;;;;;;2.90;2.58;;;;;;;28.21;nan;100216.81;20875055;27;96845;-76
2022/06/29 06:25:01;;;;;;;2.08;1.98;;;;;;;28.22;nan;100225.63;20859432;27;96882;-76
2022/06/29 06:35:01;;;;;;;2.60;2.40;;;;;;;28.24;nan;100215.66;20869842;27;96909;-76
2022/06/29 06:45:03;;;;;;;2.40;2.20;;;;;;;28.24;nan;100212.97;20862280;27;96837;-76
2022/06/29 06:55:03;;;;;;;2.50;2.30;;;;;;;28.23;nan;100204.16;20869993;27;96819;-76
2022/06/29 07:05:04;;;;;;;2.63;2.42;;;;;;;28.25;nan;100196.00;20870331;27;97218;-76
2022/06/29 07:15:05;;;;;;;2.70;2.50;;;;;;;28.23;nan;100193.50;20848319;27;97349;-76
2022/06/29 07:25:06;;;;;;;2.30;2.10;;;;;;;28.25;nan;100188.84;20874583;27;96790;-76
2022/06/29 07:35:07;;;;;;;3.17;2.30;;;;;;;28.27;nan;100183.34;20890861;27;97461;-77
2022/06/29 07:45:08;;;;;;;2.65;2.45;;;;;;;28.28;nan;100185.84;20884606;27;96768;-76
2022/06/29 07:55:09;;;;;;;2.60;2.40;;;;;;;28.30;nan;100174.22;20884043;27;101530;-77
2022/06/29 08:05:09;;;;;;;2.97;2.67;;;;;;;28.28;nan;100180.53;20906092;27;96953;-77
2022/06/29 08:15:10;;;;;;;2.83;2.57;;;;;;;28.28;nan;100167.22;20872002;27;98110;-77
2022/06/29 08:25:11;;;;;;;2.90;2.70;;;;;;;28.28;nan;100159.22;20899932;27;96814;-77
2022/06/29 08:35:13;;;;;;;2.72;2.53;;;;;;;28.28;nan;100159.22;20900541;27;96869;-76
2022/06/29 08:45:15;;;;;;;2.60;2.40;;;;;;;28.31;nan;100159.88;20894238;27;96819;-76
2022/06/29 08:55:18;;;;;;;2.50;2.30;;;;;;;28.33;nan;100152.56;20853963;27;96963;-76
2022/06/29 09:05:18;;;;;;;2.42;2.22;;;;;;;28.33;nan;100142.75;20867721;27;97022;-77
2022/06/29 09:15:33;;;;;;;2.50;2.30;;;;;;;28.34;nan;100124.94;20875237;27;96872;-76
2022/06/29 09:25:39;;;;;;;2.10;1.90;;;;;;;28.34;nan;100131.06;20890974;27;97404;-76
2022/06/29 09:35:39;;;;;;;2.50;2.30;;;;;;;28.35;nan;100121.25;20871336;27;96740;-76
2022/06/29 09:45:43;;;;;;;2.20;2.03;;;;;;;28.36;nan;100128.25;20874750;27;96855;-76
2022/06/29 09:55:48;;;;;;;2.15;1.95;;;;;;;28.38;nan;100107.59;20863831;27;96861;-76
2022/06/29 10:05:55;;;;;;;2.42;2.22;;;;;;;28.37;nan;100096.13;20852889;27;96697;-76
2022/06/29 10:16:08;;;;;;;2.20;2.00;;;;;;;28.39;nan;100087.94;20870740;27;96966;-76
2022/06/29 10:26:31;;;;;;;1.98;1.88;;;;;;;28.42;nan;100066.31;20867288;27;96852;-76
2022/06/29 10:37:04;;;;;;;2.03;1.83;;;;;;;28.44;nan;100053.63;20886055;27;97159;-76
2022/06/29 10:47:04;;;;;;;2.00;1.80;;;;;;;28.47;nan;100045.31;20857326;27;96746;-76
2022/06/29 10:57:05;;;;;;;1.98;1.88;;;;;;;28.50;nan;100046.78;20880078;27;96837;-76
2022/06/29 11:17:40;;;;;;;;;;;;;;;28.55;nan;100023.09;20885154;27;96832;-76
2022/06/29 11:27:40;;;;;;;1.73;1.63;;;;;;;28.59;nan;100008.44;20872193;27;98103;-76
2022/06/29 11:37:52;;;;;;;1.75;1.65;;;;;;;28.64;nan;99992.75;20862212;27;96868;-76
2022/06/29 11:47:53;;;;;;;1.83;1.73;;;;;;;28.69;nan;99987.75;20872057;27;97023;-76
2022/06/29 11:57:57;;;;;;;1.65;1.55;;;;;;;28.74;nan;99979.22;20879587;27;96932;-76
2022/06/29 12:07:58;;;;;;;2.03;1.90;;;;;;;28.80;nan;99967.84;20866021;27;96837;-76
2022/06/29 12:17:58;;;;;;;1.63;1.52;;;;;;;28.84;nan;99955.81;20891042;27;96916;-76
2022/06/29 12:27:58;;;;;;;1.75;1.65;;;;;;;28.90;nan;99946.25;20897518;27;101320;-76
2022/06/29 12:37:59;;;;;;;1.77;1.67;;;;;;;28.96;nan;99928.72;20896279;27;97505;-76
2022/06/29 12:47:59;;;;;;;1.80;1.70;;;;;;;29.00;nan;99920.19;20902637;27;97779;-76
2022/06/29 12:58:00;;;;;;;1.58;1.48;;;;;;;29.06;nan;99915.97;20893749;27;98820;-76
2022/06/29 13:08:00;;;;;;;1.50;1.40;;;;;;;29.12;nan;99920.56;20891409;27;96907;-76
2022/06/29 13:18:02;;;;;;;1.40;1.30;;;;;;;29.16;nan;99911.19;20878927;27;99238;-76
2022/06/29 13:28:03;;;;;;;1.50;1.40;;;;;;;29.23;nan;99897.94;20865368;27;96914;-77
2022/06/29 13:38:05;;;;;;;1.63;1.50;;;;;;;29.27;nan;99893.88;20887277;27;96775;-77
2022/06/29 13:48:05;;;;;;;1.67;1.58;;;;;;;29.30;nan;99882.91;20885530;27;96780;-77
2022/06/29 13:58:06;;;;;;;1.70;1.60;;;;;;;29.35;nan;99882.34;20879339;27;96862;-77
2022/06/29 14:08:06;;;;;;;1.58;1.48;;;;;;;29.39;nan;99878.28;20896548;27;97291;-77
2022/06/29 14:18:07;;;;;;;1.38;1.27;;;;;;;29.42;nan;99874.41;20883986;27;97044;-77
2022/06/29 14:28:07;;;;;;;1.40;1.30;;;;;;;29.46;nan;99860.53;20862333;27;98044;-77
2022/06/29 14:38:08;;;;;;;1.40;1.30;;;;;;;29.51;nan;99857.31;20879339;27;97328;-76
2022/06/29 14:48:09;;;;;;;1.70;1.60;;;;;;;29.53;nan;99833.94;20882301;27;97508;-76
2022/06/29 14:58:09;;;;;;;1.45;1.25;;;;;;;29.55;nan;99822.06;20886727;27;96706;-77
2022/06/29 15:08:10;;;;;;;1.52;1.42;;;;;;;29.58;nan;99823.53;20875567;27;96881;-77
2022/06/29 15:18:10;;;;;;;1.00;1.00;;;;;;;29.59;nan;99811.00;20854719;27;97449;-77
2022/06/29 15:28:10;;;;;;;1.30;1.20;;;;;;;29.60;nan;99808.16;20874171;27;96845;-76
2022/06/29 15:38:45;;;;;;;1.50;1.40;;;;;;;29.59;nan;99790.50;20876685;27;97214;-75
2022/06/29 15:48:34;;;;;;;1.50;1.40;;;;;;;29.60;nan;99785.97;20882752;27;97427;-76
2022/06/29 15:58:35;;;;;;;1.38;1.27;;;;;;;29.60;nan;99775.31;20899582;27;96775;-76
2022/06/29 16:08:35;;;;;;;1.33;1.23;;;;;;;29.61;nan;99766.31;20893740;27;96971;-76
2022/06/29 16:18:36;;;;;;;1.48;1.38;;;;;;;29.60;nan;99759.31;20897477;27;97011;-76
2022/06/29 16:28:36;;;;;;;1.15;1.15;;;;;;;29.58;nan;99750.66;20886415;27;96953;-76
2022/06/29 16:38:36;;;;;;;1.00;1.00;;;;;;;29.58;nan;99756.00;20864175;27;97401;-76
2022/06/29 16:48:37;;;;;;;1.10;1.10;;;;;;;29.54;nan;99744.88;20873792;27;96943;-76
2022/06/29 16:58:37;;;;;;;1.10;1.10;;;;;;;29.51;nan;99740.75;20891254;27;96885;-76
2022/06/29 17:08:38;;;;;;;1.30;1.20;;;;;;;29.48;nan;99741.16;20867596;27;96945;-75
2022/06/29 17:18:38;;;;;;;1.30;1.20;;;;;;;29.47;nan;99734.16;20896180;27;97681;-75
2022/06/29 17:28:39;;;;;;;1.37;1.30;;;;;;;29.43;nan;99734.72;20846073;27;96686;-74
2022/06/29 17:38:40;;;;;;;1.40;1.30;;;;;;;29.41;nan;99742.91;20878089;27;96801;-75
2022/06/29 17:48:40;;;;;;;1.85;1.20;;;;;;;29.38;nan;99737.94;20875513;27;97754;-76
2022/06/29 17:58:40;;;;;;;1.20;1.20;;;;;;;29.35;nan;99739.16;20855868;27;97604;-77
2022/06/29 18:08:41;;;;;;;1.40;1.30;;;;;;;29.32;nan;99750.22;20867752;27;97126;-77
2022/06/29 18:18:41;;;;;;;1.08;1.08;;;;;;;29.29;nan;99753.22;20871889;27;98116;-77
2022/06/29 18:28:42;;;;;;;1.27;1.17;;;;;;;29.27;nan;99760.56;20883314;27;96863;-75
2022/06/29 18:38:42;;;;;;;1.30;1.20;;;;;;;29.24;nan;99766.28;20891436;27;96889;-77
2022/06/29 18:48:42;;;;;;;1.20;1.10;;;;;;;29.24;nan;99784.97;20887655;27;97313;-77
2022/06/29 18:58:43;;;;;;;1.15;1.15;;;;;;;29.22;nan;99801.16;20871829;27;96877;-77
2022/06/29 19:08:43;;;;;;;1.30;1.20;;;;;;;29.22;nan;99808.31;20888324;27;96946;-76
2022/06/29 19:18:44;;;;;;;1.35;1.25;;;;;;;29.21;nan;99817.31;20890474;27;97909;-77
2022/06/29 19:28:44;;;;;;;1.10;1.10;;;;;;;29.19;nan;99825.50;20877865;27;96897;-76
2022/06/29 19:38:45;;;;;;;1.30;1.20;;;;;;;29.19;nan;99835.34;20885705;27;96749;-76
2022/06/29 19:48:46;;;;;;;1.20;1.20;;;;;;;29.17;nan;99837.38;20883536;27;96759;-76
2022/06/29 19:58:47;;;;;;;1.40;1.30;;;;;;;29.16;nan;99849.03;20859360;27;97136;-77
2022/06/29 20:08:47;;;;;;;1.40;1.30;;;;;;;29.14;nan;99856.38;20859464;27;97008;-77
2022/06/29 20:18:47;;;;;;;1.70;1.60;;;;;;;29.15;nan;99864.22;20877130;27;97422;-74
2022/06/29 20:28:48;;;;;;;4.03;3.63;;;;;;;29.15;nan;99864.22;20877313;27;96725;-77
2022/06/29 20:38:48;;;;;;;3.75;3.38;;;;;;;29.17;nan;99872.03;20895879;27;97282;-77
2022/06/29 20:48:49;;;;;;;3.90;3.50;;;;;;;29.16;nan;99876.53;20885214;27;97231;-76
2022/06/29 20:58:49;;;;;;;3.80;3.42;;;;;;;29.14;nan;99888.38;20879200;27;97179;-76
2022/06/29 21:08:50;;;;;;;4.40;4.00;;;;;;;29.12;nan;99896.56;20891789;27;96803;-76
2022/06/29 21:18:50;;;;;;;5.28;4.28;;;;;;;29.10;nan;99895.94;20896100;27;97250;-76
2022/06/29 21:28:51;;;;;;;4.30;3.90;;;;;;;29.11;nan;99891.41;20876616;27;97322;-76
2022/06/29 21:38:51;;;;;;;5.00;4.50;;;;;;;29.08;nan;99912.09;20887263;27;97571;-76
2022/06/29 21:59:11;;;;;;;4.80;4.40;;;;;;;29.10;nan;99913.75;20880430;27;96858;-76
2022/06/29 22:09:12;;;;;;;5.25;4.72;;;;;;;29.11;nan;99915.41;20878342;27;97156;-76
2022/06/29 22:19:12;;;;;;;4.90;4.50;;;;;;;29.10;nan;99903.94;20862394;27;97135;-76
2022/06/29 22:29:12;;;;;;;4.80;4.40;;;;;;;29.08;nan;99908.63;20888485;27;97316;-77
2022/06/29 22:39:13;;;;;;;4.68;4.18;;;;;;;29.10;nan;99903.09;20892365;27;97192;-77
2022/06/29 22:49:13;;;;;;;5.13;4.30;;;;;;;29.10;nan;99906.59;20858624;27;97290;-75
2022/06/29 22:59:14;;;;;;;5.32;4.65;;;;;;;29.10;nan;99895.09;20870354;27;98104;-75
2022/06/29 23:09:14;;;;;;;4.90;4.50;;;;;;;29.06;nan;99879.47;20883653;27;96813;-76
2022/06/29 23:19:15;;;;;;;4.50;4.10;;;;;;;29.09;nan;99875.63;20890633;27;96876;-77
2022/06/29 23:29:15;;;;;;;4.80;4.40;;;;;;;29.09;nan;99875.63;20874247;27;96855;-77
2022/06/29 23:39:16;;;;;;;5.13;4.50;;;;;;;29.10;nan;99884.44;20870903;27;96942;-77
2022/06/29 23:49:17;;;;;;;4.45;4.05;;;;;;;29.10;nan;99873.75;20878159;27;97061;-77
2022/06/29 23:59:18;;;;;;;4.30;3.90;;;;;;;29.08;nan;99879.28;20889512;27;96826;-77
